Cap Castillo — A8PI5 — position and weather

sailwx.info

Track history (hours):
 
Tides and Currents Weather Stations Pressure Air Temp Water Temp Dewpoint Dewpoint Depression Visibility Wind Speed Wind Dir Waves Ship Positions

Cap Castillo

Last reported at 2018-May-08 02:51 UTC. Time now 2018-May-24 17:31 UTC.
Position N 23°58' E 067°10'.
Warning: this ship's position is 16 days out of date.

Length 215 m; draft 8.7 m.

Type: Ship. MMSI: 636018594.

Date/timePositionNaut miles runAvg speedWind from/ knotsBaromVisibWave heightAir tempDewpointWater temp
2018-May-08 02:51N 23°58' E 067°10'411.8
2018-May-08 02:30N 23°55' E 067°12'5212.1
2018-May-07 22:13N 23°09' E 067°38'612.5
2018-May-07 21:45N 23°03' E 067°41'412.5
2018-May-07 21:28N 23°00' E 067°43'612.5
2018-May-07 20:59N 22°55' E 067°46'612.7
2018-May-07 20:29N 22°49' E 067°49'612.8
2018-May-07 20:00N 22°44' E 067°52'612.8
2018-May-07 19:30N 22°38' E 067°55'712.9
2018-May-07 19:00N 22°32' E 067°58'612.8
2018-May-07 18:30N 22°26' E 068°01'713.1
2018-May-07 18:00N 22°20' E 068°04'13512.7
2018-May-07 07:21N 20°28' E 069°25'512.6
2018-May-07 06:59N 20°24' E 069°28'1012.9
2018-May-07 06:12N 20°16' E 069°34'513.0
2018-May-07 05:50N 20°12' E 069°37'413.2
2018-May-07 05:30N 20°09' E 069°39'713.0
2018-May-07 04:58N 20°03' E 069°44'613.0
2018-May-07 04:30N 19°58' E 069°47'713.1
2018-May-07 04:00N 19°53' E 069°52'612.8
2018-May-07 03:30N 19°48' E 069°56'612.7
2018-May-07 03:00N 19°43' E 069°60'612.7
2018-May-07 02:30N 19°38' E 070°04'612.7
2018-May-07 02:00N 19°33' E 070°08'612.8
2018-May-07 01:30N 19°27' E 070°12'712.7
2018-May-07 00:59N 19°22' E 070°16'712.6
2018-May-07 00:26N 19°16' E 070°20'612.5
2018-May-06 23:58N 19°12' E 070°24'612.5
2018-May-06 23:30N 19°08' E 070°28'712.6
2018-May-06 22:56N 19°04' E 070°35'512.6
2018-May-06 22:30N 19°02' E 070°40'712.5
2018-May-06 21:59N 18°60' E 070°47'712.6
2018-May-06 21:24N 18°57' E 070°54'512.7
2018-May-06 21:00N 18°55' E 070°59'612.5
2018-May-06 20:30N 18°54' E 071°05'712.5
2018-May-06 19:59N 18°54' E 071°12'612.5
2018-May-06 19:30N 18°54' E 071°18'612.5
2018-May-06 19:00N 18°54' E 071°25'712.7
2018-May-06 18:28N 18°54' E 071°32'612.6
2018-May-06 18:00N 18°54' E 071°38'612.7
2018-May-06 17:30N 18°54' E 071°45'612.7
2018-May-06 16:59N 18°54' E 071°52'712.7
2018-May-06 16:28N 18°54' E 071°59'612.7
2018-May-06 16:00N 18°54' E 072°05'612.7
2018-May-06 15:30N 18°53' E 072°12'712.7
2018-May-06 14:59N 18°52' E 072°19'612.8
2018-May-06 14:30N 18°51' E 072°25'712.5
2018-May-06 13:57N 18°51' E 072°32'612.5
2018-May-06 13:30N 18°50' E 072°38'612.5
2018-May-06 13:00N 18°50' E 072°45'611.7
2018-May-06 12:30N 18°53' E 072°51'510.5
2018-May-06 12:00N 18°56' E 072°55'33 2.4
2018-May-05 22:17N 19°15' E 072°27'5 9.9
2018-May-05 21:44N 19°21' E 072°25'6 9.9
2018-May-05 21:07N 19°27' E 072°24'310.1
2018-May-05 20:52N 19°29' E 072°24'4 9.7
2018-May-05 20:28N 19°33' E 072°23'5 9.7
2018-May-05 19:59N 19°38' E 072°23'610.0
2018-May-05 19:26N 19°43' E 072°22'1110.3
2018-May-05 18:22N 19°54' E 072°19'3 9.1
2018-May-05 18:00N 19°56' E 072°16'510.2
2018-May-05 17:30N 19°57' E 072°11'510.1
2018-May-05 16:59N 19°59' E 072°06'510.0
2018-May-05 16:29N 20°01' E 072°01'5 9.8
2018-May-05 15:59N 20°03' E 071°56'5 9.9
2018-May-05 15:30N 20°04' E 071°51'5 9.9
2018-May-05 15:00N 20°06' E 071°46'510.2
2018-May-05 14:29N 20°08' E 071°41'5 9.5
2018-May-05 14:00N 20°11' E 071°37'510.2
2018-May-05 13:29N 20°16' E 071°36'510.2
2018-May-05 13:00N 20°21' E 071°37'510.1
2018-May-05 12:30N 20°26' E 071°37'510.0
2018-May-05 12:00N 20°31' E 071°36'510.0
2018-May-05 11:30N 20°36' E 071°35'610.4
2018-May-05 10:57N 20°41' E 071°32'810.2
2018-May-05 10:12N 20°48' E 071°30'210.1
2018-May-05 10:00N 20°50' E 071°30'5 9.0
2018-May-05 09:30N 20°55' E 071°30'1 0.5
2018-May-05 08:17N 20°55' E 071°31'0 0.0
2018-May-05 07:53N 20°55' E 071°31'0 0.0
2018-May-05 05:53N 20°55' E 071°31'0 0.0
2018-May-05 04:59N 20°55' E 071°31'0 0.0
2018-May-05 04:23N 20°55' E 071°31'0 0.0
2018-May-05 03:53N 20°55' E 071°31'0 0.0
2018-May-05 01:35N 20°55' E 071°31'0 0.0
2018-May-05 01:29N 20°55' E 071°31'0 1.0
2018-May-05 01:00N 20°55' E 071°30'3 6.8
2018-May-05 00:30N 20°51' E 071°30'3 6.6
2018-May-05 00:00N 20°49' E 071°28'5 9.8
2018-May-04 23:30N 20°44' E 071°26'612.9
2018-May-04 23:00N 20°39' E 071°22'815.2
2018-May-04 22:30N 20°32' E 071°18'916.8
2018-May-04 21:59N 20°25' E 071°14'1017.0
2018-May-04 21:24N 20°16' E 071°08'716.7
2018-May-04 20:59N 20°10' E 071°04'1016.7
2018-May-04 20:24N 20°02' E 070°59'716.7
2018-May-04 20:00N 19°56' E 070°56'817.0
2018-May-04 19:30N 19°49' E 070°51'816.9
2018-May-04 19:00N 19°42' E 070°46'916.8
2018-May-04 18:30N 19°34' E 070°41'816.7
2018-May-04 18:00N 19°27' E 070°37'816.6
2018-May-04 17:30N 19°20' E 070°33'816.7
2018-May-04 17:00N 19°13' E 070°29'916.7
2018-May-04 16:27N 19°04' E 070°24'716.4
2018-May-04 16:00N 18°57' E 070°26'816.4
2018-May-04 15:29N 18°49' E 070°27'816.5
2018-May-04 15:00N 18°41' E 070°29'916.4
2018-May-04 14:28N 18°33' E 070°33'816.5
2018-May-04 13:59N 18°26' E 070°37'816.6
2018-May-04 13:30N 18°19' E 070°41'816.7
2018-May-04 13:00N 18°12' E 070°45'816.8
2018-May-04 12:30N 18°04' E 070°49'1016.7
2018-May-04 11:53N 17°55' E 070°54'616.5
2018-May-04 11:29N 17°49' E 070°58'816.3
2018-May-04 10:59N 17°42' E 071°02'816.5
2018-May-04 10:29N 17°35' E 071°06'816.5
2018-May-04 10:00N 17°28' E 071°10'1316.4
2018-May-04 09:14N 17°17' E 071°16'  
2018-Apr-28 09:02N 01°26' E 103°09'617.0
2018-Apr-28 08:42N 01°23' E 103°13'416.9
2018-Apr-28 08:29N 01°21' E 103°16'917.0
2018-Apr-28 07:59N 01°16' E 103°23'715.3
2018-Apr-28 07:30N 01°13' E 103°30'816.3
2018-Apr-28 07:00N 01°12' E 103°38'5 9.6
2018-Apr-28 06:30N 01°14' E 103°42'5 9.7
2018-Apr-28 05:59N 01°16' E 103°47'0 0.5
2018-Apr-28 05:23N 01°16' E 103°47'0 0.0
2018-Apr-28 05:00N 01°16' E 103°47'0 0.0
2018-Apr-28 04:30N 01°16' E 103°47'0 0.0
2018-Apr-28 03:49N 01°16' E 103°47'0 0.0
2018-Apr-28 03:23N 01°16' E 103°47'0 0.0
2018-Apr-28 02:57N 01°16' E 103°47'  
Track history (hours):
 
Tides and Currents Weather Stations Pressure Air Temp Water Temp Dewpoint Dewpoint Depression Visibility Wind Speed Wind Dir Waves Ship Positions

Cap Castillo

Last reported at 2018-May-08 02:51 UTC. Time now 2018-May-24 17:31 UTC.
Position N 23°58' E 067°10'.
Warning: this ship's position is 16 days out of date.

Length 215 m; draft 8.7 m.

Type: Ship. MMSI: 636018594.

Date/timePositionNaut miles runAvg speedWind from/ knotsBaromVisibWave heightAir tempDewpointWater temp
2018-May-08 02:51N 23°58' E 067°10'411.8
2018-May-08 02:30N 23°55' E 067°12'5212.1
2018-May-07 22:13N 23°09' E 067°38'612.5
2018-May-07 21:45N 23°03' E 067°41'412.5
2018-May-07 21:28N 23°00' E 067°43'612.5
2018-May-07 20:59N 22°55' E 067°46'612.7
2018-May-07 20:29N 22°49' E 067°49'612.8
2018-May-07 20:00N 22°44' E 067°52'612.8
2018-May-07 19:30N 22°38' E 067°55'712.9
2018-May-07 19:00N 22°32' E 067°58'612.8
2018-May-07 18:30N 22°26' E 068°01'713.1
2018-May-07 18:00N 22°20' E 068°04'13512.7
2018-May-07 07:21N 20°28' E 069°25'512.6
2018-May-07 06:59N 20°24' E 069°28'1012.9
2018-May-07 06:12N 20°16' E 069°34'513.0
2018-May-07 05:50N 20°12' E 069°37'413.2
2018-May-07 05:30N 20°09' E 069°39'713.0
2018-May-07 04:58N 20°03' E 069°44'613.0
2018-May-07 04:30N 19°58' E 069°47'713.1
2018-May-07 04:00N 19°53' E 069°52'612.8
2018-May-07 03:30N 19°48' E 069°56'612.7
2018-May-07 03:00N 19°43' E 069°60'612.7
2018-May-07 02:30N 19°38' E 070°04'612.7
2018-May-07 02:00N 19°33' E 070°08'612.8
2018-May-07 01:30N 19°27' E 070°12'712.7
2018-May-07 00:59N 19°22' E 070°16'712.6
2018-May-07 00:26N 19°16' E 070°20'612.5
2018-May-06 23:58N 19°12' E 070°24'612.5
2018-May-06 23:30N 19°08' E 070°28'712.6
2018-May-06 22:56N 19°04' E 070°35'512.6
2018-May-06 22:30N 19°02' E 070°40'712.5
2018-May-06 21:59N 18°60' E 070°47'712.6
2018-May-06 21:24N 18°57' E 070°54'512.7
2018-May-06 21:00N 18°55' E 070°59'612.5
2018-May-06 20:30N 18°54' E 071°05'712.5
2018-May-06 19:59N 18°54' E 071°12'612.5
2018-May-06 19:30N 18°54' E 071°18'612.5
2018-May-06 19:00N 18°54' E 071°25'712.7
2018-May-06 18:28N 18°54' E 071°32'612.6
2018-May-06 18:00N 18°54' E 071°38'612.7
2018-May-06 17:30N 18°54' E 071°45'612.7
2018-May-06 16:59N 18°54' E 071°52'712.7
2018-May-06 16:28N 18°54' E 071°59'612.7
2018-May-06 16:00N 18°54' E 072°05'612.7
2018-May-06 15:30N 18°53' E 072°12'712.7
2018-May-06 14:59N 18°52' E 072°19'612.8
2018-May-06 14:30N 18°51' E 072°25'712.5
2018-May-06 13:57N 18°51' E 072°32'612.5
2018-May-06 13:30N 18°50' E 072°38'612.5
2018-May-06 13:00N 18°50' E 072°45'611.7
2018-May-06 12:30N 18°53' E 072°51'510.5
2018-May-06 12:00N 18°56' E 072°55'33 2.4
2018-May-05 22:17N 19°15' E 072°27'5 9.9
2018-May-05 21:44N 19°21' E 072°25'6 9.9
2018-May-05 21:07N 19°27' E 072°24'310.1
2018-May-05 20:52N 19°29' E 072°24'4 9.7
2018-May-05 20:28N 19°33' E 072°23'5 9.7
2018-May-05 19:59N 19°38' E 072°23'610.0
2018-May-05 19:26N 19°43' E 072°22'1110.3
2018-May-05 18:22N 19°54' E 072°19'3 9.1
2018-May-05 18:00N 19°56' E 072°16'510.2
2018-May-05 17:30N 19°57' E 072°11'510.1
2018-May-05 16:59N 19°59' E 072°06'510.0
2018-May-05 16:29N 20°01' E 072°01'5 9.8
2018-May-05 15:59N 20°03' E 071°56'5 9.9
2018-May-05 15:30N 20°04' E 071°51'5 9.9
2018-May-05 15:00N 20°06' E 071°46'510.2
2018-May-05 14:29N 20°08' E 071°41'5 9.5
2018-May-05 14:00N 20°11' E 071°37'510.2
2018-May-05 13:29N 20°16' E 071°36'510.2
2018-May-05 13:00N 20°21' E 071°37'510.1
2018-May-05 12:30N 20°26' E 071°37'510.0
2018-May-05 12:00N 20°31' E 071°36'510.0
2018-May-05 11:30N 20°36' E 071°35'610.4
2018-May-05 10:57N 20°41' E 071°32'810.2
2018-May-05 10:12N 20°48' E 071°30'210.1
2018-May-05 10:00N 20°50' E 071°30'5 9.0
2018-May-05 09:30N 20°55' E 071°30'1 0.5
2018-May-05 08:17N 20°55' E 071°31'0 0.0
2018-May-05 07:53N 20°55' E 071°31'0 0.0
2018-May-05 05:53N 20°55' E 071°31'0 0.0
2018-May-05 04:59N 20°55' E 071°31'0 0.0
2018-May-05 04:23N 20°55' E 071°31'0 0.0
2018-May-05 03:53N 20°55' E 071°31'0 0.0
2018-May-05 01:35N 20°55' E 071°31'0 0.0
2018-May-05 01:29N 20°55' E 071°31'0 1.0
2018-May-05 01:00N 20°55' E 071°30'3 6.8
2018-May-05 00:30N 20°51' E 071°30'3 6.6
2018-May-05 00:00N 20°49' E 071°28'5 9.8
2018-May-04 23:30N 20°44' E 071°26'612.9
2018-May-04 23:00N 20°39' E 071°22'815.2
2018-May-04 22:30N 20°32' E 071°18'916.8
2018-May-04 21:59N 20°25' E 071°14'1017.0
2018-May-04 21:24N 20°16' E 071°08'716.7
2018-May-04 20:59N 20°10' E 071°04'1016.7
2018-May-04 20:24N 20°02' E 070°59'716.7
2018-May-04 20:00N 19°56' E 070°56'817.0
2018-May-04 19:30N 19°49' E 070°51'816.9
2018-May-04 19:00N 19°42' E 070°46'916.8
2018-May-04 18:30N 19°34' E 070°41'816.7
2018-May-04 18:00N 19°27' E 070°37'816.6
2018-May-04 17:30N 19°20' E 070°33'816.7
2018-May-04 17:00N 19°13' E 070°29'916.7
2018-May-04 16:27N 19°04' E 070°24'716.4
2018-May-04 16:00N 18°57' E 070°26'816.4
2018-May-04 15:29N 18°49' E 070°27'816.5
2018-May-04 15:00N 18°41' E 070°29'916.4
2018-May-04 14:28N 18°33' E 070°33'816.5
2018-May-04 13:59N 18°26' E 070°37'816.6
2018-May-04 13:30N 18°19' E 070°41'816.7
2018-May-04 13:00N 18°12' E 070°45'816.8
2018-May-04 12:30N 18°04' E 070°49'1016.7
2018-May-04 11:53N 17°55' E 070°54'616.5
2018-May-04 11:29N 17°49' E 070°58'816.3
2018-May-04 10:59N 17°42' E 071°02'816.5
2018-May-04 10:29N 17°35' E 071°06'816.5
2018-May-04 10:00N 17°28' E 071°10'1316.4
2018-May-04 09:14N 17°17' E 071°16'  
2018-Apr-28 09:02N 01°26' E 103°09'617.0
2018-Apr-28 08:42N 01°23' E 103°13'416.9
2018-Apr-28 08:29N 01°21' E 103°16'917.0
2018-Apr-28 07:59N 01°16' E 103°23'715.3
2018-Apr-28 07:30N 01°13' E 103°30'816.3
2018-Apr-28 07:00N 01°12' E 103°38'5 9.6
2018-Apr-28 06:30N 01°14' E 103°42'5 9.7
2018-Apr-28 05:59N 01°16' E 103°47'0 0.5
2018-Apr-28 05:23N 01°16' E 103°47'0 0.0
2018-Apr-28 05:00N 01°16' E 103°47'0 0.0
2018-Apr-28 04:30N 01°16' E 103°47'0 0.0
2018-Apr-28 03:49N 01°16' E 103°47'0 0.0
2018-Apr-28 03:23N 01°16' E 103°47'0 0.0
2018-Apr-28 02:57N 01°16' E 103°47'  

Dump ship's entire track history